TAF PAKT
AMD PAKT 080306Z 0803/0824 VRB06KT P6SM -RASN SCT009 OVC060 WS020/27035KT TEMPO 0803/0807 3SM -SN BR SCT005 OVC025 AMD LTD TO CLD VIS AND WIND 0806/0815=
METAR PAKT
WC PAKT
WS PAKT
WV PAKT